Time;durP1;ratioP1;P1;durP2;ratioP2;P2;SDS_P1;SDS_P2;PMS_P1;PMS_P2;Temp;Humidity;BMP_temperature;BMP_pressure;BME280_temperature;BME280_humidity;BME280_pressure;Samples;Min_cycle;Max_cycle;Signal;HPM_P1;HPM_P2
2023/01/19 00:01:21;;;;;;;14.98;7.50;;;-0.80;99.90;;;;;;4971565;28;20050;-77
2023/01/19 00:03:47;;;;;;;15.68;7.97;;;-0.80;99.90;;;;;;4968745;28;20027;-77
2023/01/19 00:06:13;;;;;;;15.00;8.32;;;-0.90;99.90;;;;;;4968522;28;20045;-78
2023/01/19 00:08:39;;;;;;;15.75;7.53;;;-0.90;99.90;;;;;;4967212;28;20031;-77
2023/01/19 00:11:05;;;;;;;17.25;8.23;;;-0.90;99.90;;;;;;4971396;28;20034;-77
2023/01/19 00:13:31;;;;;;;16.85;8.55;;;-0.90;99.90;;;;;;4979931;28;20035;-78
2023/01/19 00:15:57;;;;;;;15.00;8.07;;;-1.00;99.90;;;;;;4989579;28;20095;-78
2023/01/19 00:18:23;;;;;;;16.35;7.78;;;-1.00;99.90;;;;;;4980500;28;20042;-78
2023/01/19 00:20:49;;;;;;;14.27;7.43;;;-1.00;99.90;;;;;;4981263;28;20423;-78
2023/01/19 00:23:15;;;;;;;14.40;7.57;;;-1.00;99.90;;;;;;4979983;28;20031;-78
2023/01/19 00:25:42;;;;;;;16.92;7.90;;;-1.00;99.90;;;;;;4981487;28;20023;-78
2023/01/19 00:28:10;;;;;;;14.82;7.25;;;-1.00;99.90;;;;;;4976653;28;20097;-78
2023/01/19 00:30:37;;;;;;;17.27;8.48;;;-1.00;99.90;;;;;;4981056;28;20077;-79
2023/01/19 00:33:02;;;;;;;20.77;8.05;;;-1.00;99.90;;;;;;4976762;28;20033;-77
2023/01/19 00:35:28;;;;;;;14.00;7.40;;;-0.90;99.90;;;;;;4980405;28;20023;-77
2023/01/19 00:37:55;;;;;;;14.48;7.15;;;-1.00;99.90;;;;;;4983632;28;20045;-78
2023/01/19 00:40:21;;;;;;;13.80;6.70;;;-1.00;99.90;;;;;;4982781;28;20030;-78
2023/01/19 00:42:47;;;;;;;15.93;7.75;;;-1.00;99.90;;;;;;4977791;28;20078;-78
2023/01/19 00:45:22;;;;;;;12.90;6.70;;;-1.00;99.90;;;;;;4986213;28;20492;-77
2023/01/19 00:47:53;;;;;;;15.73;7.45;;;-1.00;99.90;;;;;;4985451;28;20037;-78
2023/01/19 00:50:19;;;;;;;15.38;7.47;;;-1.00;99.90;;;;;;4987945;28;20030;-78
2023/01/19 00:52:45;;;;;;;15.23;6.88;;;-1.10;99.90;;;;;;4980950;28;20074;-78
2023/01/19 00:55:13;;;;;;;14.93;7.15;;;-1.10;99.90;;;;;;4978142;28;20050;-78
2023/01/19 00:57:39;;;;;;;16.08;6.95;;;-1.20;99.90;;;;;;4968054;28;20062;-77
2023/01/19 01:00:18;;;;;;;14.77;7.22;;;-1.10;99.90;;;;;;4966806;28;20465;-77
2023/01/19 01:02:44;;;;;;;14.68;7.82;;;-1.20;99.90;;;;;;4966633;28;20088;-78
2023/01/19 01:05:10;;;;;;;14.60;6.65;;;-1.20;99.90;;;;;;4975931;28;20027;-77
2023/01/19 01:07:40;;;;;;;12.90;7.32;;;-1.10;99.90;;;;;;4973785;28;20027;-78
2023/01/19 01:10:10;;;;;;;14.45;6.95;;;-1.10;99.90;;;;;;4965368;28;20820;-78
2023/01/19 01:12:37;;;;;;;19.90;7.95;;;-1.20;99.90;;;;;;4971232;28;20054;-78
2023/01/19 01:15:04;;;;;;;17.48;7.38;;;-1.10;99.90;;;;;;4967961;28;20045;-78
2023/01/19 01:17:29;;;;;;;16.00;7.15;;;-1.10;99.90;;;;;;4968923;28;20027;-78
2023/01/19 01:19:55;;;;;;;15.07;7.80;;;-1.20;99.90;;;;;;4965621;28;20042;-78
2023/01/19 01:22:21;;;;;;;15.05;7.85;;;-1.20;99.90;;;;;;4967491;28;20076;-78
2023/01/19 01:24:46;;;;;;;14.25;7.13;;;-1.20;99.90;;;;;;4968636;28;20031;-78
2023/01/19 01:27:12;;;;;;;14.68;7.45;;;-1.20;99.90;;;;;;4968491;28;20399;-78
2023/01/19 01:29:39;;;;;;;16.05;7.28;;;-1.20;99.90;;;;;;4968899;28;20061;-78
2023/01/19 01:32:06;;;;;;;14.57;6.53;;;-1.20;99.90;;;;;;4965545;28;20118;-78
2023/01/19 01:34:32;;;;;;;14.43;7.20;;;-1.30;99.90;;;;;;4972429;28;20470;-78
2023/01/19 01:36:58;;;;;;;13.95;6.82;;;-1.30;99.90;;;;;;4974082;28;20027;-78
2023/01/19 01:39:24;;;;;;;17.65;6.57;;;-1.20;99.90;;;;;;4975488;28;20100;-78
2023/01/19 01:41:50;;;;;;;12.50;7.10;;;-1.20;99.90;;;;;;4976134;28;20050;-79
2023/01/19 01:44:48;;;;;;;14.77;7.10;;;-1.30;99.90;;;;;;4969686;28;20507;-78
2023/01/19 01:47:35;;;;;;;15.35;6.95;;;-1.30;99.90;;;;;;4965834;28;20023;-78
2023/01/19 01:50:22;;;;;;;15.68;7.00;;;-1.30;99.90;;;;;;4963177;28;20038;-78
2023/01/19 01:53:04;;;;;;;18.05;7.30;;;-1.30;99.90;;;;;;4965019;28;20383;-78
2023/01/19 01:55:31;;;;;;;14.43;7.68;;;-1.30;99.90;;;;;;4969992;28;20385;-79
2023/01/19 01:58:02;;;;;;;15.80;6.68;;;-1.30;99.90;;;;;;4971029;28;20116;-78
2023/01/19 02:02:49;;;;;;;11.98;6.57;;;-1.30;99.90;;;;;;4963507;28;20027;-78
2023/01/19 02:03:14;;;;;;;12.60;6.32;;;-1.30;99.90;;;;;;4969729;28;20061;-78
2023/01/19 02:05:41;;;;;;;12.13;6.80;;;-1.30;99.90;;;;;;4973183;28;20439;-78
2023/01/19 02:14:04;;;;;;;16.50;6.70;;;-1.40;99.90;;;;;;4991769;28;20501;-79
2023/01/19 02:16:29;;;;;;;15.43;6.93;;;-1.40;99.90;;;;;;4989662;28;20026;-78
2023/01/19 02:18:56;;;;;;;14.48;6.78;;;-1.40;99.90;;;;;;4987806;28;20037;-78
2023/01/19 02:21:32;;;;;;;13.98;6.80;;;-1.40;99.90;;;;;;4988941;28;20401;-78
2023/01/19 02:24:00;;;;;;;14.13;6.40;;;-1.50;99.90;;;;;;4991248;28;20049;-78
2023/01/19 02:26:33;;;;;;;11.18;6.07;;;-1.50;99.90;;;;;;4987132;28;20030;-78
2023/01/19 02:29:03;;;;;;;11.40;6.25;;;-1.50;99.90;;;;;;4987592;28;20035;-78
2023/01/19 02:31:30;;;;;;;14.07;6.63;;;-1.50;99.90;;;;;;4988384;28;20041;-79
2023/01/19 02:33:58;;;;;;;13.52;6.07;;;-1.50;99.90;;;;;;4995257;28;20049;-78
2023/01/19 02:36:46;;;;;;;14.10;5.93;;;-1.50;99.90;;;;;;5003847;28;20037;-78
2023/01/19 02:39:14;;;;;;;13.00;6.35;;;-1.50;99.90;;;;;;5011070;28;20046;-79
2023/01/19 02:41:44;;;;;;;14.73;6.15;;;-1.50;99.90;;;;;;4995617;28;20120;-79
2023/01/19 02:44:11;;;;;;;13.57;6.53;;;-1.50;99.90;;;;;;4979102;28;20030;-78
2023/01/19 02:46:37;;;;;;;14.93;6.82;;;-1.50;99.90;;;;;;4993113;28;20074;-78
2023/01/19 02:49:03;;;;;;;10.20;5.60;;;-1.50;99.90;;;;;;4975395;28;20058;-78
2023/01/19 02:51:29;;;;;;;13.77;6.13;;;-1.50;99.90;;;;;;4980534;28;20119;-78
2023/01/19 02:54:03;;;;;;;12.90;5.13;;;-1.50;99.90;;;;;;4985842;28;20675;-79
2023/01/19 02:56:45;;;;;;;12.48;5.93;;;-1.50;99.90;;;;;;4985172;28;20050;-78
2023/01/19 02:59:22;;;;;;;12.90;6.13;;;-1.50;99.90;;;;;;4990417;28;20019;-77
2023/01/19 03:02:16;;;;;;;10.65;5.78;;;-1.50;99.90;;;;;;4988965;28;20218;-78
2023/01/19 03:05:05;;;;;;;11.52;6.03;;;-1.50;99.90;;;;;;4989520;28;20057;-78
2023/01/19 03:08:06;;;;;;;9.80;5.45;;;-1.50;99.90;;;;;;4989917;28;20085;-78
2023/01/19 03:10:50;;;;;;;12.43;6.05;;;-1.60;99.90;;;;;;4991250;28;20089;-77
2023/01/19 03:13:40;;;;;;;11.07;5.47;;;-1.60;99.90;;;;;;4989995;28;20038;-76
2023/01/19 03:16:16;;;;;;;12.40;5.65;;;-1.50;99.90;;;;;;4985319;28;20486;-77
2023/01/19 03:18:47;;;;;;;10.27;4.95;;;-1.60;99.90;;;;;;4988918;28;20126;-78
2023/01/19 03:21:15;;;;;;;10.63;5.80;;;-1.60;99.90;;;;;;4988309;28;20026;-77
2023/01/19 03:23:44;;;;;;;11.30;5.47;;;-1.60;99.90;;;;;;4990081;28;20041;-78
2023/01/19 03:26:14;;;;;;;11.07;4.95;;;-1.60;99.90;;;;;;4988722;28;20383;-78
2023/01/19 03:28:41;;;;;;;12.85;5.50;;;-1.60;99.90;;;;;;4987080;28;20022;-78
2023/01/19 03:31:17;;;;;;;10.90;4.93;;;-1.60;99.90;;;;;;4991367;28;20077;-78
2023/01/19 03:33:49;;;;;;;12.80;4.63;;;-1.60;99.90;;;;;;4989493;28;20019;-77
2023/01/19 03:36:24;;;;;;;10.95;6.32;;;-1.60;99.90;;;;;;4991593;28;20084;-78
2023/01/19 03:38:51;;;;;;;12.02;5.05;;;-1.60;99.90;;;;;;4985330;28;20080;-77
2023/01/19 03:41:20;;;;;;;12.10;5.05;;;-1.60;99.90;;;;;;4973711;28;20035;-77
2023/01/19 03:43:49;;;;;;;10.05;5.25;;;-1.70;99.90;;;;;;4989296;28;20034;-78
2023/01/19 03:46:18;;;;;;;10.82;4.55;;;-1.60;99.90;;;;;;4989325;28;20036;-78
2023/01/19 03:48:45;;;;;;;14.07;5.22;;;-1.70;99.90;;;;;;4973421;28;20030;-78
2023/01/19 03:51:12;;;;;;;13.93;5.45;;;-1.70;99.90;;;;;;4987142;28;20537;-78
2023/01/19 03:53:38;;;;;;;10.70;4.55;;;-1.70;99.90;;;;;;4987187;28;20646;-78
2023/01/19 03:56:04;;;;;;;9.38;5.13;;;-1.70;99.90;;;;;;4978813;28;20102;-78
2023/01/19 03:58:30;;;;;;;11.55;4.75;;;-1.70;99.90;;;;;;4987447;28;20072;-78
2023/01/19 04:00:55;;;;;;;11.65;4.60;;;-1.70;99.90;;;;;;4989831;28;20062;-78
2023/01/19 04:03:21;;;;;;;13.70;5.43;;;-1.60;99.90;;;;;;4984314;28;21620;-78
2023/01/19 04:05:47;;;;;;;10.65;5.05;;;-1.60;99.90;;;;;;4988515;28;20027;-78
2023/01/19 04:08:12;;;;;;;9.73;4.53;;;-1.70;99.90;;;;;;4970844;28;20042;-77
2023/01/19 04:10:38;;;;;;;13.73;4.68;;;-1.70;99.90;;;;;;4985874;28;20033;-78
2023/01/19 04:13:04;;;;;;;12.25;4.72;;;-1.70;99.90;;;;;;4991174;28;20018;-78
2023/01/19 04:15:31;;;;;;;8.15;4.55;;;-1.70;99.90;;;;;;4988445;28;20046;-78
2023/01/19 04:17:57;;;;;;;8.85;3.83;;;-1.80;99.90;;;;;;4988007;28;20242;-78
2023/01/19 04:20:25;;;;;;;11.88;5.57;;;-1.80;99.90;;;;;;4988512;28;20030;-78
2023/01/19 04:22:51;;;;;;;9.27;5.85;;;-1.80;99.90;;;;;;4987041;28;20575;-78
2023/01/19 04:25:17;;;;;;;10.35;4.63;;;-1.80;99.90;;;;;;4991790;28;20110;-78
2023/01/19 04:27:42;;;;;;;10.55;4.70;;;-1.80;99.90;;;;;;4988939;28;20030;-78
2023/01/19 04:30:09;;;;;;;10.98;5.40;;;-1.80;99.90;;;;;;4989487;28;20057;-78
2023/01/19 04:32:34;;;;;;;13.15;5.60;;;-1.80;99.90;;;;;;4989551;28;20113;-78
2023/01/19 04:35:00;;;;;;;14.63;5.13;;;-1.80;99.90;;;;;;4985848;28;20522;-78
2023/01/19 04:37:26;;;;;;;11.00;5.28;;;-1.80;99.90;;;;;;4984862;28;21253;-78
2023/01/19 04:39:51;;;;;;;10.43;4.90;;;-1.80;99.90;;;;;;4987173;28;21187;-78
2023/01/19 04:42:17;;;;;;;11.10;4.82;;;-1.80;99.90;;;;;;4983499;28;20451;-78
2023/01/19 04:44:42;;;;;;;10.23;4.35;;;-1.80;99.90;;;;;;4973210;28;20037;-78
2023/01/19 04:47:08;;;;;;;10.77;4.50;;;-1.80;99.90;;;;;;4985419;28;20033;-78
2023/01/19 04:49:36;;;;;;;7.53;4.05;;;-1.80;99.90;;;;;;4986688;28;20053;-78
2023/01/19 04:52:03;;;;;;;11.05;5.28;;;-1.70;99.90;;;;;;4985495;28;20026;-78
2023/01/19 04:54:29;;;;;;;10.13;5.13;;;-1.70;99.90;;;;;;4985829;28;20026;-79
2023/01/19 04:56:55;;;;;;;10.88;4.95;;;-1.70;99.90;;;;;;4989193;28;20054;-78
2023/01/19 04:59:21;;;;;;;11.05;5.18;;;-1.70;99.90;;;;;;4986344;28;20057;-78
2023/01/19 05:01:46;;;;;;;11.93;5.55;;;-1.60;99.90;;;;;;4972516;28;20027;-78
2023/01/19 05:04:12;;;;;;;11.10;5.82;;;-1.60;99.90;;;;;;4973155;28;20458;-78
2023/01/19 05:06:37;;;;;;;11.43;6.72;;;-1.60;99.90;;;;;;4988846;28;20038;-78
2023/01/19 05:09:03;;;;;;;14.55;6.95;;;-1.50;99.90;;;;;;4986237;28;20023;-78
2023/01/19 05:11:29;;;;;;;15.38;7.13;;;-1.50;99.90;;;;;;4989530;28;20058;-78
2023/01/19 05:13:55;;;;;;;18.50;8.27;;;-1.50;99.90;;;;;;4986479;28;20458;-78
2023/01/19 05:16:21;;;;;;;16.02;8.23;;;-1.50;99.90;;;;;;4973873;28;20034;-78
2023/01/19 05:18:46;;;;;;;14.95;7.80;;;-1.40;99.90;;;;;;4979051;28;20030;-78
2023/01/19 05:21:12;;;;;;;12.38;7.00;;;-1.50;99.90;;;;;;4988932;28;20387;-79
2023/01/19 05:23:37;;;;;;;12.55;6.55;;;-1.40;99.90;;;;;;4973897;28;20033;-79
2023/01/19 05:26:03;;;;;;;12.38;7.10;;;-1.50;99.90;;;;;;4972102;28;20491;-79
2023/01/19 05:28:31;;;;;;;14.40;6.78;;;-1.50;99.90;;;;;;4988317;28;20034;-79
2023/01/19 05:30:57;;;;;;;11.30;6.05;;;-1.40;99.90;;;;;;4991430;28;20034;-78
2023/01/19 05:33:23;;;;;;;12.68;5.97;;;-1.40;99.90;;;;;;4990600;28;20161;-78
2023/01/19 05:35:49;;;;;;;17.65;7.47;;;-1.40;99.90;;;;;;4988220;28;20025;-79
2023/01/19 05:38:15;;;;;;;14.45;6.70;;;-1.40;99.90;;;;;;4974354;28;20034;-79
2023/01/19 05:40:41;;;;;;;11.35;5.97;;;-1.40;99.90;;;;;;4975178;28;20475;-79
2023/01/19 05:43:07;;;;;;;9.35;6.03;;;-1.40;99.90;;;;;;4976166;28;20022;-78
2023/01/19 05:45:33;;;;;;;11.50;6.10;;;-1.40;99.90;;;;;;4977326;28;20042;-79
2023/01/19 05:47:58;;;;;;;12.13;6.45;;;-1.40;99.90;;;;;;4990192;28;20046;-79
2023/01/19 05:50:24;;;;;;;12.32;5.70;;;-1.40;99.90;;;;;;4990215;28;20569;-78
2023/01/19 05:52:52;;;;;;;11.50;5.80;;;-1.40;99.90;;;;;;4986112;28;20054;-78
2023/01/19 05:55:18;;;;;;;12.80;5.90;;;-1.40;99.90;;;;;;4988261;28;20026;-78
2023/01/19 05:57:43;;;;;;;11.10;5.93;;;-1.40;99.90;;;;;;4989822;28;20018;-78
2023/01/19 06:00:10;;;;;;;11.45;6.18;;;-1.40;99.90;;;;;;4985946;28;20542;-79
2023/01/19 06:02:35;;;;;;;14.65;6.50;;;-1.40;99.90;;;;;;4991904;28;20250;-78
2023/01/19 06:05:01;;;;;;;13.15;7.13;;;-1.40;99.90;;;;;;4988202;28;20379;-78
2023/01/19 06:07:27;;;;;;;14.48;6.28;;;-1.40;99.90;;;;;;4989136;28;20045;-78
2023/01/19 06:09:52;;;;;;;16.25;6.15;;;-1.40;99.90;;;;;;4988759;28;20157;-78
2023/01/19 06:12:18;;;;;;;11.20;6.30;;;-1.40;99.90;;;;;;4991346;28;20026;-78
2023/01/19 06:14:44;;;;;;;13.23;5.93;;;-1.40;99.90;;;;;;4990962;28;20033;-78
2023/01/19 06:17:09;;;;;;;12.98;6.05;;;-1.50;99.90;;;;;;4989302;28;20026;-78
2023/01/19 06:19:35;;;;;;;12.63;5.82;;;-1.60;99.90;;;;;;4990699;28;20114;-78
2023/01/19 06:22:01;;;;;;;12.20;6.57;;;-1.60;99.90;;;;;;4990419;28;20031;-78
2023/01/19 06:24:28;;;;;;;14.00;6.22;;;-1.70;99.90;;;;;;4988709;28;20030;-78
2023/01/19 06:26:54;;;;;;;13.57;6.35;;;-1.70;99.90;;;;;;4991946;28;20026;-78
2023/01/19 06:29:20;;;;;;;13.15;6.03;;;-1.70;99.90;;;;;;4987636;28;20123;-77
2023/01/19 06:31:46;;;;;;;18.33;6.50;;;-1.70;99.90;;;;;;4988022;28;20041;-79
2023/01/19 06:34:12;;;;;;;12.93;6.45;;;-1.70;99.90;;;;;;4989299;28;20027;-79
2023/01/19 06:36:38;;;;;;;13.75;6.45;;;-1.80;99.90;;;;;;4988192;28;20050;-80
2023/01/19 06:39:04;;;;;;;12.98;6.13;;;-1.80;99.90;;;;;;4987097;28;20541;-79
2023/01/19 06:41:32;;;;;;;12.85;6.60;;;-1.90;99.90;;;;;;4975164;28;20448;-79
2023/01/19 06:43:57;;;;;;;16.42;6.13;;;-1.90;99.90;;;;;;4992494;28;20092;-79
2023/01/19 06:46:23;;;;;;;9.40;5.05;;;-1.90;99.90;;;;;;4975610;28;20038;-79
2023/01/19 06:48:49;;;;;;;10.93;5.40;;;-2.00;99.90;;;;;;4989471;28;20035;-79
2023/01/19 06:51:14;;;;;;;10.93;5.40;;;-2.00;99.90;;;;;;4971143;28;20032;-79
2023/01/19 06:53:40;;;;;;;18.52;7.80;;;-2.00;99.90;;;;;;4990633;28;20109;-79
2023/01/19 06:56:07;;;;;;;11.38;6.25;;;-2.00;99.90;;;;;;4991696;28;20061;-80
2023/01/19 06:58:33;;;;;;;11.82;6.13;;;-2.00;99.90;;;;;;4986627;28;20085;-79
2023/01/19 07:01:04;;;;;;;13.98;6.60;;;-2.00;99.90;;;;;;4990015;28;20026;-80
2023/01/19 07:03:31;;;;;;;15.00;5.95;;;-2.00;99.90;;;;;;4971952;28;20519;-80
2023/01/19 07:05:56;;;;;;;14.88;5.65;;;-2.00;99.90;;;;;;4990546;28;21491;-79
2023/01/19 07:08:22;;;;;;;12.40;6.40;;;-2.00;99.90;;;;;;4988166;28;20041;-80
2023/01/19 07:10:48;;;;;;;12.77;6.65;;;-2.10;99.90;;;;;;4988306;28;20034;-83
2023/01/19 07:13:14;;;;;;;13.05;7.20;;;-2.10;99.90;;;;;;4970843;28;21860;-83
2023/01/19 07:15:40;;;;;;;16.75;6.68;;;-2.00;99.90;;;;;;4989357;28;20026;-83
2023/01/19 07:18:08;;;;;;;14.45;6.15;;;-2.10;99.90;;;;;;4990400;28;20026;-84
2023/01/19 07:20:35;;;;;;;18.05;6.20;;;-2.00;99.90;;;;;;4989395;28;20022;-85
2023/01/19 07:23:00;;;;;;;14.15;6.30;;;-2.00;99.90;;;;;;4969016;28;20200;-83
2023/01/19 07:25:26;;;;;;;11.55;5.97;;;-2.00;99.90;;;;;;4997140;23;20534;-73
2023/01/19 07:27:57;;;;;;;12.73;6.72;;;-2.10;99.90;;;;;;4989397;28;20022;-73
2023/01/19 07:30:22;;;;;;;14.48;7.18;;;-2.10;99.90;;;;;;4997270;28;20520;-74
2023/01/19 07:32:48;;;;;;;14.02;5.93;;;-2.10;99.90;;;;;;5001803;28;20121;-73
2023/01/19 07:35:14;;;;;;;19.30;7.65;;;-2.10;99.90;;;;;;5013017;28;20029;-73
2023/01/19 07:37:40;;;;;;;12.90;6.85;;;-2.10;99.90;;;;;;4989862;28;20585;-73
2023/01/19 07:40:09;;;;;;;16.27;7.10;;;-2.10;99.90;;;;;;5008063;28;20034;-73
2023/01/19 07:42:35;;;;;;;9.63;5.90;;;-2.10;99.90;;;;;;4991684;28;20172;-73
2023/01/19 07:45:00;;;;;;;13.15;5.88;;;-2.10;99.90;;;;;;5009752;28;20022;-73
2023/01/19 07:47:26;;;;;;;14.52;6.13;;;-2.10;99.90;;;;;;5012248;28;20034;-73
2023/01/19 07:49:54;;;;;;;10.85;5.75;;;-2.20;99.90;;;;;;5009044;28;20033;-74
2023/01/19 07:52:21;;;;;;;14.50;6.90;;;-2.10;99.90;;;;;;5010621;28;20021;-74
2023/01/19 07:54:50;;;;;;;11.43;5.55;;;-2.10;99.90;;;;;;5009556;28;20096;-74
2023/01/19 07:57:16;;;;;;;12.43;7.13;;;-2.20;99.90;;;;;;5008051;28;20045;-75
2023/01/19 07:59:48;;;;;;;13.05;6.15;;;-2.10;99.90;;;;;;4994967;28;20041;-73
2023/01/19 08:02:14;;;;;;;12.70;5.75;;;-2.10;99.90;;;;;;5008040;28;20045;-74
2023/01/19 08:04:39;;;;;;;13.32;5.00;;;-2.10;99.90;;;;;;5013075;28;20029;-73
2023/01/19 08:07:05;;;;;;;10.80;5.72;;;-2.20;99.90;;;;;;5013681;28;20026;-73
2023/01/19 08:09:31;;;;;;;11.25;5.35;;;-2.20;99.90;;;;;;5011294;28;20482;-73
2023/01/19 08:12:02;;;;;;;18.27;7.25;;;-2.10;99.90;;;;;;4992129;28;20525;-73
2023/01/19 08:14:31;;;;;;;22.05;7.78;;;-2.10;99.90;;;;;;5006988;28;20421;-73
2023/01/19 08:17:01;;;;;;;13.18;6.22;;;-2.00;99.90;;;;;;4994622;28;20036;-72
2023/01/19 08:19:27;;;;;;;11.85;6.35;;;-2.00;99.90;;;;;;5014472;28;20030;-74
2023/01/19 08:21:57;;;;;;;11.73;5.85;;;-1.90;99.90;;;;;;5012047;28;20108;-73
2023/01/19 08:24:27;;;;;;;17.08;6.13;;;-1.90;99.90;;;;;;4998523;28;20044;-73
2023/01/19 08:27:02;;;;;;;13.75;5.70;;;-1.90;99.90;;;;;;5013324;28;20022;-73
2023/01/19 08:29:30;;;;;;;12.18;5.22;;;-1.80;99.90;;;;;;5009581;28;20037;-73
2023/01/19 08:31:58;;;;;;;10.95;5.85;;;-1.80;99.90;;;;;;5010585;28;20033;-73
2023/01/19 08:34:29;;;;;;;11.60;5.68;;;-1.80;99.90;;;;;;5009060;28;20024;-73
2023/01/19 08:36:58;;;;;;;11.00;5.97;;;-1.70;99.90;;;;;;5009257;28;20041;-74
2023/01/19 08:39:30;;;;;;;17.08;6.80;;;-1.70;99.90;;;;;;4996577;28;20029;-73
2023/01/19 08:41:59;;;;;;;16.20;6.03;;;-1.60;99.90;;;;;;5010244;28;20026;-73
2023/01/19 08:44:28;;;;;;;16.20;7.88;;;-1.60;99.90;;;;;;5005745;28;20528;-75
2023/01/19 08:46:56;;;;;;;13.20;7.90;;;-1.50;99.90;;;;;;4993985;28;20129;-74
2023/01/19 08:49:31;;;;;;;14.75;7.50;;;-1.60;99.90;;;;;;5006652;28;20044;-73
2023/01/19 08:51:56;;;;;;;16.17;7.93;;;-1.60;99.90;;;;;;5000815;28;20034;-75
2023/01/19 08:54:23;;;;;;;17.10;8.00;;;-1.50;99.90;;;;;;5008421;28;20041;-75
2023/01/19 08:56:48;;;;;;;15.05;7.75;;;-1.50;99.90;;;;;;4995281;28;20394;-75
2023/01/19 08:59:14;;;;;;;14.00;7.25;;;-1.50;99.90;;;;;;5011835;28;20026;-75
2023/01/19 09:01:40;;;;;;;15.10;7.88;;;-1.50;99.90;;;;;;5010481;28;20030;-75
2023/01/19 09:04:05;;;;;;;17.95;8.48;;;-1.40;99.90;;;;;;5008126;28;20026;-75
2023/01/19 09:06:31;;;;;;;17.20;8.25;;;-1.40;99.90;;;;;;5005467;28;20044;-73
2023/01/19 09:08:57;;;;;;;15.10;8.00;;;-1.30;99.90;;;;;;4991620;28;20372;-75
2023/01/19 09:11:22;;;;;;;16.45;8.18;;;-1.30;99.90;;;;;;5010875;28;20030;-74
2023/01/19 09:13:48;;;;;;;14.68;7.38;;;-1.20;99.90;;;;;;5000615;28;20070;-74
2023/01/19 09:16:14;;;;;;;16.23;8.23;;;-1.10;99.90;;;;;;5003686;28;20036;-74
2023/01/19 09:18:40;;;;;;;17.92;9.30;;;-1.10;99.90;;;;;;5007126;28;20080;-76
2023/01/19 09:21:07;;;;;;;16.77;8.68;;;-1.00;99.90;;;;;;5009333;28;20022;-74
2023/01/19 09:23:32;;;;;;;16.27;7.72;;;-1.00;99.90;;;;;;4989253;28;20033;-73
2023/01/19 09:26:00;;;;;;;16.15;8.07;;;-0.80;99.90;;;;;;5003332;28;20034;-73
2023/01/19 09:28:28;;;;;;;18.17;7.20;;;-0.70;99.90;;;;;;5006476;28;20034;-73
2023/01/19 09:30:54;;;;;;;13.82;7.93;;;-0.60;99.90;;;;;;4991226;28;20051;-73
2023/01/19 09:33:20;;;;;;;13.90;7.15;;;-0.50;99.90;;;;;;4995047;28;20029;-72
2023/01/19 09:35:47;;;;;;;12.90;6.55;;;-0.40;99.90;;;;;;4994653;28;20030;-73
2023/01/19 09:38:14;;;;;;;13.95;7.53;;;-0.30;99.90;;;;;;5011128;28;20041;-73
2023/01/19 09:40:46;;;;;;;15.57;7.43;;;-0.30;99.90;;;;;;5014084;28;20034;-72
2023/01/19 09:43:38;;;;;;;12.50;6.35;;;-0.20;99.90;;;;;;4992207;28;20117;-72
2023/01/19 09:46:28;;;;;;;14.07;6.82;;;-0.10;99.90;;;;;;5006468;28;20788;-74
2023/01/19 09:48:56;;;;;;;14.93;7.53;;;0.00;99.90;;;;;;4992300;28;20482;-75
2023/01/19 09:51:35;;;;;;;13.07;6.72;;;0.10;99.90;;;;;;5010552;28;20479;-75
2023/01/19 09:54:17;;;;;;;14.15;6.13;;;0.20;99.90;;;;;;5006170;28;20097;-74
2023/01/19 09:56:44;;;;;;;17.55;8.70;;;0.30;99.90;;;;;;4994476;28;20022;-74
2023/01/19 09:59:31;;;;;;;17.83;8.13;;;0.30;99.90;;;;;;4996179;28;20030;-73
2023/01/19 10:02:39;;;;;;;15.57;6.68;;;0.40;99.90;;;;;;4998816;28;20138;-73
2023/01/19 10:05:30;;;;;;;10.73;6.20;;;0.50;99.90;;;;;;4931332;29;20046;-74
2023/01/19 10:08:27;;;;;;;15.35;5.85;;;0.50;99.90;;;;;;5004773;28;20026;-73
2023/01/19 10:10:56;;;;;;;15.75;7.65;;;0.60;99.90;;;;;;4993632;28;20083;-73
2023/01/19 10:13:47;;;;;;;13.32;6.60;;;0.60;99.90;;;;;;4996327;28;20491;-74
2023/01/19 10:16:30;;;;;;;13.85;6.63;;;0.70;99.90;;;;;;5018734;28;20028;-75
2023/01/19 10:19:01;;;;;;;17.00;6.35;;;0.80;99.90;;;;;;5000746;28;20458;-73
2023/01/19 10:21:32;;;;;;;13.00;6.15;;;0.80;99.90;;;;;;5013254;28;20478;-73
2023/01/19 10:24:06;;;;;;;13.27;6.45;;;0.90;99.90;;;;;;4999599;28;20045;-74
2023/01/19 10:27:01;;;;;;;14.70;6.20;;;0.90;99.90;;;;;;5017164;28;20505;-73
2023/01/19 10:29:38;;;;;;;15.23;6.68;;;0.90;99.90;;;;;;4997653;28;20415;-73
2023/01/19 10:32:06;;;;;;;12.85;6.40;;;1.00;99.90;;;;;;5016125;28;20022;-73
2023/01/19 10:34:32;;;;;;;10.30;5.57;;;1.00;99.90;;;;;;5015917;28;20434;-74
2023/01/19 10:37:14;;;;;;;12.00;5.97;;;1.10;99.90;;;;;;5016349;28;20025;-74
2023/01/19 10:39:41;;;;;;;14.15;6.72;;;1.10;99.90;;;;;;5010637;28;20025;-74
2023/01/19 10:42:14;;;;;;;13.73;6.10;;;1.10;99.90;;;;;;5002308;28;20050;-75
2023/01/19 10:44:40;;;;;;;13.93;6.53;;;1.00;99.90;;;;;;4997635;28;20407;-74
2023/01/19 10:47:19;;;;;;;16.23;6.80;;;1.10;99.90;;;;;;5015624;28;20105;-74
2023/01/19 10:49:47;;;;;;;19.23;7.80;;;1.10;99.90;;;;;;5015551;28;20084;-74
2023/01/19 10:52:36;;;;;;;15.52;8.20;;;1.10;99.90;;;;;;5015104;28;20537;-74
2023/01/19 10:55:05;;;;;;;17.45;8.45;;;1.10;99.90;;;;;;5014917;28;20018;-74
2023/01/19 10:57:42;;;;;;;24.23;12.48;;;1.20;99.90;;;;;;5015407;28;20030;-74
2023/01/19 11:00:28;;;;;;;38.58;20.05;;;1.20;99.90;;;;;;4992201;28;20475;-77
2023/01/19 11:02:53;;;;;;;22.88;11.18;;;1.20;99.90;;;;;;5000729;28;20388;-75
2023/01/19 11:05:25;;;;;;;15.35;7.70;;;1.20;99.90;;;;;;5015453;28;20033;-75
2023/01/19 11:07:51;;;;;;;13.20;6.60;;;1.20;99.90;;;;;;5011094;28;20018;-74
2023/01/19 11:10:19;;;;;;;10.90;6.10;;;1.20;99.90;;;;;;5011397;28;20034;-74
2023/01/19 11:13:01;;;;;;;12.10;7.28;;;1.20;99.90;;;;;;5008982;28;20029;-75
2023/01/19 11:15:29;;;;;;;11.27;6.03;;;1.30;99.90;;;;;;4990834;28;20030;-73
2023/01/19 11:17:59;;;;;;;10.73;5.50;;;1.30;99.90;;;;;;5007921;28;20033;-73
2023/01/19 11:20:28;;;;;;;20.20;10.25;;;1.40;99.90;;;;;;4988687;28;20038;-73
2023/01/19 11:23:13;;;;;;;13.05;9.18;;;1.40;99.90;;;;;;4995549;28;20037;-73
2023/01/19 11:25:39;;;;;;;20.38;10.88;;;1.40;99.90;;;;;;5006640;28;20109;-73
2023/01/19 11:28:05;;;;;;;15.80;7.45;;;1.40;99.90;;;;;;5003851;28;20029;-74
2023/01/19 11:30:31;;;;;;;15.40;7.18;;;1.40;99.90;;;;;;5008841;28;20033;-74
2023/01/19 11:32:56;;;;;;;20.55;8.15;;;1.40;99.90;;;;;;4992529;28;20022;-74
2023/01/19 11:35:34;;;;;;;13.85;7.10;;;1.30;99.90;;;;;;4988765;28;20057;-75
2023/01/19 11:38:12;;;;;;;15.35;7.70;;;1.30;99.90;;;;;;5014561;28;20026;-74
2023/01/19 11:40:42;;;;;;;15.23;6.60;;;1.20;99.90;;;;;;4994599;28;20398;-74
2023/01/19 11:43:12;;;;;;;18.30;10.48;;;1.20;99.90;;;;;;5006563;28;20471;-75
2023/01/19 11:45:38;;;;;;;18.25;8.70;;;1.20;99.90;;;;;;5009386;28;20077;-74
2023/01/19 11:48:06;;;;;;;14.20;7.10;;;1.20;99.90;;;;;;5014970;28;20025;-73
2023/01/19 11:50:40;;;;;;;14.73;7.30;;;1.20;99.90;;;;;;5012920;28;20033;-74
2023/01/19 11:53:27;;;;;;;11.48;5.22;;;1.20;99.90;;;;;;5013542;28;20128;-74
2023/01/19 11:56:12;;;;;;;11.82;5.05;;;1.20;99.90;;;;;;4992222;28;20025;-74
2023/01/19 11:58:40;;;;;;;10.07;6.30;;;1.30;99.90;;;;;;5009621;28;20018;-74
2023/01/19 12:01:28;;;;;;;14.15;6.72;;;1.30;99.90;;;;;;5011574;28;20041;-75
2023/01/19 12:04:19;;;;;;;13.70;6.38;;;1.40;99.90;;;;;;5013088;28;20407;-75
2023/01/19 12:06:51;;;;;;;13.52;7.53;;;1.40;99.90;;;;;;5019288;28;20080;-74
2023/01/19 12:09:20;;;;;;;10.30;6.20;;;1.40;99.90;;;;;;5001621;28;20390;-75
2023/01/19 12:11:52;;;;;;;12.40;5.80;;;1.50;99.90;;;;;;5008509;28;20033;-76
2023/01/19 12:14:41;;;;;;;17.95;7.03;;;1.40;99.90;;;;;;4998936;28;20029;-77
2023/01/19 12:17:15;;;;;;;16.85;6.35;;;1.40;99.90;;;;;;5012928;28;20030;-74
2023/01/19 12:19:50;;;;;;;22.27;7.82;;;1.40;99.90;;;;;;5019183;28;20022;-76
2023/01/19 12:22:18;;;;;;;13.10;5.80;;;1.40;99.90;;;;;;5006943;28;20036;-74
2023/01/19 12:25:00;;;;;;;16.17;7.03;;;1.40;99.90;;;;;;4996435;28;20025;-76
2023/01/19 12:27:47;;;;;;;14.25;6.28;;;1.40;99.90;;;;;;5009753;28;20034;-75
2023/01/19 12:30:20;;;;;;;21.20;10.43;;;1.40;99.90;;;;;;5007708;28;20391;-75
2023/01/19 12:32:45;;;;;;;15.43;7.38;;;1.40;99.90;;;;;;4996020;28;20096;-75
2023/01/19 12:35:50;;;;;;;12.25;6.32;;;1.50;99.90;;;;;;5014225;28;20055;-76
2023/01/19 12:38:38;;;;;;;13.15;6.30;;;1.50;99.90;;;;;;5003542;28;20119;-76
2023/01/19 12:41:24;;;;;;;11.07;5.65;;;1.50;99.90;;;;;;4991727;28;20030;-76
2023/01/19 12:44:14;;;;;;;8.20;5.15;;;1.60;99.90;;;;;;5012758;28;20386;-77
2023/01/19 12:46:50;;;;;;;11.18;5.13;;;1.60;99.90;;;;;;4993352;28;20456;-76
2023/01/19 12:49:25;;;;;;;10.88;5.28;;;1.60;99.90;;;;;;5005496;28;20995;-76
2023/01/19 12:52:12;;;;;;;11.27;4.57;;;1.60;99.90;;;;;;5007588;28;20027;-76
2023/01/19 12:54:42;;;;;;;10.82;4.97;;;1.70;99.90;;;;;;4997951;28;20046;-76
2023/01/19 12:57:19;;;;;;;8.93;4.85;;;1.70;99.90;;;;;;5012397;28;20014;-77
2023/01/19 12:59:46;;;;;;;9.27;4.85;;;1.70;99.90;;;;;;5009754;28;20390;-76
2023/01/19 13:02:24;;;;;;;10.13;5.00;;;1.70;99.90;;;;;;5010368;28;20034;-75